Pays
Station

 

Conditions  météo  pour  Guantanamo, Oriente  -  Cuba    Cuba

  
29 °C
    
 
 

METAR pour Guantanamo, Oriente :

MUGM 212256Z 03007KT 9999 FEW030 29/23 A2988 RMK SLP117 T02940233

 

Voici le bulletin pour Guantanamo, Oriente - Cuba.
 
Le bulletin a été fait il y a 18 minutes, à 22:56 UTC .
Le vent soufflait à la vitesse de 3.6 mètres par seconde de Nord/Nord-est (030°).
 
La température était de 29 °C, avec un point de rosée à 23 °C.
La température ressentie était de 33 °C.
 
La pression atmosphérique était de 1012 hPa.
L'humidité relative était de 70.1%.
 
Il y avait 1 à 2/8ème de nébulosité à une hauteur de 914 mètres.
 
La visibilité globale était de supérieure à 10 kilomètres.
 

 
 
 

Pays :   A   B   C   D   E   F   G   H   I   J   K   L   M   N   O   P   Q   R   S   T   U   V   W   Y   Z

 

Partenaires :  Info Météo avec Met'info
Météo Marine avec MeteoMarine.net
Infos Site  |  Infos Légales  |  Crédits  |  Confidentialité
Contactez-nous  |  Ajouter aux favoris
© 2013-2018 METAR - Tous droits réservés